sensor_id;sensor_type;location;lat;lon;timestamp;temperature;humidity
25482;DHT22;13395;50.752;4.268;2022-11-20T00:01:40;6.40;99.90
25482;DHT22;13395;50.752;4.268;2022-11-20T00:04:05;6.50;99.90
25482;DHT22;13395;50.752;4.268;2022-11-20T00:06:31;6.60;99.90
25482;DHT22;13395;50.752;4.268;2022-11-20T00:08:58;6.60;99.90
25482;DHT22;13395;50.752;4.268;2022-11-20T00:11:25;6.40;99.90
25482;DHT22;13395;50.752;4.268;2022-11-20T00:13:52;6.40;99.90
25482;DHT22;13395;50.752;4.268;2022-11-20T00:16:19;6.30;99.90
25482;DHT22;13395;50.752;4.268;2022-11-20T00:18:45;6.30;99.90
25482;DHT22;13395;50.752;4.268;2022-11-20T00:21:13;6.30;99.90
25482;DHT22;13395;50.752;4.268;2022-11-20T00:23:38;6.30;99.90
25482;DHT22;13395;50.752;4.268;2022-11-20T00:26:05;6.40;99.90
25482;DHT22;13395;50.752;4.268;2022-11-20T00:28:30;6.40;99.90
25482;DHT22;13395;50.752;4.268;2022-11-20T00:33:30;6.40;99.90
25482;DHT22;13395;50.752;4.268;2022-11-20T00:36:06;6.40;99.90
25482;DHT22;13395;50.752;4.268;2022-11-20T00:38:32;6.30;99.90
25482;DHT22;13395;50.752;4.268;2022-11-20T00:40:58;6.10;99.90
25482;DHT22;13395;50.752;4.268;2022-11-20T00:43:24;6.10;99.90
25482;DHT22;13395;50.752;4.268;2022-11-20T00:45:49;6.20;99.90
25482;DHT22;13395;50.752;4.268;2022-11-20T00:48:15;6.40;99.90
25482;DHT22;13395;50.752;4.268;2022-11-20T00:50:41;6.40;99.90
25482;DHT22;13395;50.752;4.268;2022-11-20T00:53:06;6.50;99.90
25482;DHT22;13395;50.752;4.268;2022-11-20T00:55:31;6.50;99.90
25482;DHT22;13395;50.752;4.268;2022-11-20T00:57:57;6.40;99.90
25482;DHT22;13395;50.752;4.268;2022-11-20T01:00:22;6.40;99.90
25482;DHT22;13395;50.752;4.268;2022-11-20T01:02:48;6.40;99.90
25482;DHT22;13395;50.752;4.268;2022-11-20T01:05:13;6.40;99.90
25482;DHT22;13395;50.752;4.268;2022-11-20T01:07:39;6.20;99.90
25482;DHT22;13395;50.752;4.268;2022-11-20T01:10:05;6.20;99.90
25482;DHT22;13395;50.752;4.268;2022-11-20T01:12:30;6.30;99.90
25482;DHT22;13395;50.752;4.268;2022-11-20T01:14:56;6.20;99.90
25482;DHT22;13395;50.752;4.268;2022-11-20T01:17:21;6.30;99.90
25482;DHT22;13395;50.752;4.268;2022-11-20T01:19:50;6.40;99.90
25482;DHT22;13395;50.752;4.268;2022-11-20T01:22:16;6.40;99.90
25482;DHT22;13395;50.752;4.268;2022-11-20T01:24:41;6.40;99.90
25482;DHT22;13395;50.752;4.268;2022-11-20T01:27:07;6.30;99.90
25482;DHT22;13395;50.752;4.268;2022-11-20T01:29:32;6.30;99.90
25482;DHT22;13395;50.752;4.268;2022-11-20T01:31:57;6.30;99.90
25482;DHT22;13395;50.752;4.268;2022-11-20T01:34:23;6.30;99.90
25482;DHT22;13395;50.752;4.268;2022-11-20T01:36:49;6.40;99.90
25482;DHT22;13395;50.752;4.268;2022-11-20T01:39:16;6.20;99.90
25482;DHT22;13395;50.752;4.268;2022-11-20T01:41:42;6.10;99.90
25482;DHT22;13395;50.752;4.268;2022-11-20T01:47:07;6.30;99.90
25482;DHT22;13395;50.752;4.268;2022-11-20T01:49:34;6.30;99.90
25482;DHT22;13395;50.752;4.268;2022-11-20T01:52:07;6.30;99.90
25482;DHT22;13395;50.752;4.268;2022-11-20T01:54:38;6.20;99.90
25482;DHT22;13395;50.752;4.268;2022-11-20T01:57:05;6.30;99.90
25482;DHT22;13395;50.752;4.268;2022-11-20T01:59:33;6.40;99.90
25482;DHT22;13395;50.752;4.268;2022-11-20T02:01:59;6.30;99.90
25482;DHT22;13395;50.752;4.268;2022-11-20T02:04:25;6.30;99.90
25482;DHT22;13395;50.752;4.268;2022-11-20T02:06:56;6.30;99.90
25482;DHT22;13395;50.752;4.268;2022-11-20T02:09:24;6.30;99.90
25482;DHT22;13395;50.752;4.268;2022-11-20T02:11:49;6.30;99.90
25482;DHT22;13395;50.752;4.268;2022-11-20T02:14:15;6.40;99.90
25482;DHT22;13395;50.752;4.268;2022-11-20T02:16:44;6.30;99.90
25482;DHT22;13395;50.752;4.268;2022-11-20T02:19:13;6.10;99.90
25482;DHT22;13395;50.752;4.268;2022-11-20T02:24:07;6.10;99.90
25482;DHT22;13395;50.752;4.268;2022-11-20T02:26:35;6.20;99.90
25482;DHT22;13395;50.752;4.268;2022-11-20T02:29:02;6.40;99.90
25482;DHT22;13395;50.752;4.268;2022-11-20T02:31:29;6.40;99.90
25482;DHT22;13395;50.752;4.268;2022-11-20T02:33:58;6.20;99.90
25482;DHT22;13395;50.752;4.268;2022-11-20T02:36:24;6.20;99.90
25482;DHT22;13395;50.752;4.268;2022-11-20T02:38:51;6.20;99.90
25482;DHT22;13395;50.752;4.268;2022-11-20T02:41:16;6.00;99.90
25482;DHT22;13395;50.752;4.268;2022-11-20T02:43:42;6.10;99.90
25482;DHT22;13395;50.752;4.268;2022-11-20T02:46:07;6.20;99.90
25482;DHT22;13395;50.752;4.268;2022-11-20T02:48:33;6.30;99.90
25482;DHT22;13395;50.752;4.268;2022-11-20T02:50:59;6.40;99.90
25482;DHT22;13395;50.752;4.268;2022-11-20T02:53:24;6.20;99.90
25482;DHT22;13395;50.752;4.268;2022-11-20T02:55:50;6.10;99.90
25482;DHT22;13395;50.752;4.268;2022-11-20T02:58:15;6.20;99.90
25482;DHT22;13395;50.752;4.268;2022-11-20T03:00:41;6.20;99.90
25482;DHT22;13395;50.752;4.268;2022-11-20T03:03:06;6.10;99.90
25482;DHT22;13395;50.752;4.268;2022-11-20T03:05:32;6.20;99.90
25482;DHT22;13395;50.752;4.268;2022-11-20T03:07:57;6.30;99.90
25482;DHT22;13395;50.752;4.268;2022-11-20T03:10:23;6.30;99.90
25482;DHT22;13395;50.752;4.268;2022-11-20T03:12:52;6.30;99.90
25482;DHT22;13395;50.752;4.268;2022-11-20T03:15:17;6.40;99.90
25482;DHT22;13395;50.752;4.268;2022-11-20T03:17:43;6.40;99.90
25482;DHT22;13395;50.752;4.268;2022-11-20T03:20:08;6.40;99.90
25482;DHT22;13395;50.752;4.268;2022-11-20T03:22:34;6.40;99.90
25482;DHT22;13395;50.752;4.268;2022-11-20T03:25:00;6.50;99.90
25482;DHT22;13395;50.752;4.268;2022-11-20T03:27:25;6.40;99.90
25482;DHT22;13395;50.752;4.268;2022-11-20T03:29:51;6.40;99.90
25482;DHT22;13395;50.752;4.268;2022-11-20T03:32:16;6.40;99.90
25482;DHT22;13395;50.752;4.268;2022-11-20T03:34:42;6.50;99.90
25482;DHT22;13395;50.752;4.268;2022-11-20T03:37:07;6.40;99.90
25482;DHT22;13395;50.752;4.268;2022-11-20T03:39:32;6.40;99.90
25482;DHT22;13395;50.752;4.268;2022-11-20T03:41:58;6.50;99.90
25482;DHT22;13395;50.752;4.268;2022-11-20T03:44:23;6.50;99.90
25482;DHT22;13395;50.752;4.268;2022-11-20T03:46:49;6.40;99.90
25482;DHT22;13395;50.752;4.268;2022-11-20T03:49:14;6.30;99.90
25482;DHT22;13395;50.752;4.268;2022-11-20T03:51:40;6.40;99.90
25482;DHT22;13395;50.752;4.268;2022-11-20T03:54:06;6.40;99.90
25482;DHT22;13395;50.752;4.268;2022-11-20T03:56:34;6.30;99.90
25482;DHT22;13395;50.752;4.268;2022-11-20T03:58:59;6.30;99.90
25482;DHT22;13395;50.752;4.268;2022-11-20T04:01:26;6.30;99.90
25482;DHT22;13395;50.752;4.268;2022-11-20T04:03:52;6.40;99.90
25482;DHT22;13395;50.752;4.268;2022-11-20T04:06:25;6.40;99.90
25482;DHT22;13395;50.752;4.268;2022-11-20T04:08:53;6.40;99.90
25482;DHT22;13395;50.752;4.268;2022-11-20T04:13:48;6.50;99.90
25482;DHT22;13395;50.752;4.268;2022-11-20T04:16:14;6.50;99.90
25482;DHT22;13395;50.752;4.268;2022-11-20T04:18:40;6.50;99.90
25482;DHT22;13395;50.752;4.268;2022-11-20T04:21:05;6.50;99.90
25482;DHT22;13395;50.752;4.268;2022-11-20T04:23:31;6.50;99.90
25482;DHT22;13395;50.752;4.268;2022-11-20T04:26:09;6.50;99.90
25482;DHT22;13395;50.752;4.268;2022-11-20T04:28:35;6.40;99.90
25482;DHT22;13395;50.752;4.268;2022-11-20T04:31:04;6.40;99.90
25482;DHT22;13395;50.752;4.268;2022-11-20T04:33:31;6.40;99.90
25482;DHT22;13395;50.752;4.268;2022-11-20T04:35:59;6.30;99.90
25482;DHT22;13395;50.752;4.268;2022-11-20T04:38:25;6.30;99.90
25482;DHT22;13395;50.752;4.268;2022-11-20T04:40:50;6.30;99.90
25482;DHT22;13395;50.752;4.268;2022-11-20T04:43:16;6.30;99.90
25482;DHT22;13395;50.752;4.268;2022-11-20T04:45:41;6.30;99.90
25482;DHT22;13395;50.752;4.268;2022-11-20T04:48:07;6.40;99.90
25482;DHT22;13395;50.752;4.268;2022-11-20T04:50:32;6.40;99.90
25482;DHT22;13395;50.752;4.268;2022-11-20T04:52:58;6.40;99.90
25482;DHT22;13395;50.752;4.268;2022-11-20T04:55:23;6.30;99.90
25482;DHT22;13395;50.752;4.268;2022-11-20T04:57:49;6.30;99.90
25482;DHT22;13395;50.752;4.268;2022-11-20T05:00:15;6.30;99.90
25482;DHT22;13395;50.752;4.268;2022-11-20T05:02:41;6.40;99.90
25482;DHT22;13395;50.752;4.268;2022-11-20T05:05:06;6.30;99.90
25482;DHT22;13395;50.752;4.268;2022-11-20T05:07:32;6.40;99.90
25482;DHT22;13395;50.752;4.268;2022-11-20T05:09:57;6.40;99.90
25482;DHT22;13395;50.752;4.268;2022-11-20T05:12:23;6.40;99.90
25482;DHT22;13395;50.752;4.268;2022-11-20T05:14:48;6.50;99.90
25482;DHT22;13395;50.752;4.268;2022-11-20T05:17:14;6.60;99.90
25482;DHT22;13395;50.752;4.268;2022-11-20T05:19:39;6.60;99.90
25482;DHT22;13395;50.752;4.268;2022-11-20T05:22:05;6.50;99.90
25482;DHT22;13395;50.752;4.268;2022-11-20T05:24:30;6.50;99.90
25482;DHT22;13395;50.752;4.268;2022-11-20T05:26:56;6.50;99.90
25482;DHT22;13395;50.752;4.268;2022-11-20T05:29:21;6.50;99.90
25482;DHT22;13395;50.752;4.268;2022-11-20T05:31:47;6.60;99.90
25482;DHT22;13395;50.752;4.268;2022-11-20T05:34:12;6.60;99.90
25482;DHT22;13395;50.752;4.268;2022-11-20T05:36:38;6.60;99.90
25482;DHT22;13395;50.752;4.268;2022-11-20T05:39:03;6.80;99.90
25482;DHT22;13395;50.752;4.268;2022-11-20T05:41:29;6.60;99.90
25482;DHT22;13395;50.752;4.268;2022-11-20T05:43:55;6.70;99.90
25482;DHT22;13395;50.752;4.268;2022-11-20T05:46:20;6.70;99.90
25482;DHT22;13395;50.752;4.268;2022-11-20T05:48:46;6.60;99.90
25482;DHT22;13395;50.752;4.268;2022-11-20T05:51:14;6.60;99.90
25482;DHT22;13395;50.752;4.268;2022-11-20T05:53:40;6.50;99.90
25482;DHT22;13395;50.752;4.268;2022-11-20T05:56:09;6.50;99.90
25482;DHT22;13395;50.752;4.268;2022-11-20T05:58:35;6.60;99.90
25482;DHT22;13395;50.752;4.268;2022-11-20T06:01:17;6.70;99.90
25482;DHT22;13395;50.752;4.268;2022-11-20T06:03:43;6.60;99.90
25482;DHT22;13395;50.752;4.268;2022-11-20T06:06:11;6.70;99.90
25482;DHT22;13395;50.752;4.268;2022-11-20T06:08:36;6.60;99.90
25482;DHT22;13395;50.752;4.268;2022-11-20T06:11:05;6.50;99.90
25482;DHT22;13395;50.752;4.268;2022-11-20T06:13:31;6.50;99.90
25482;DHT22;13395;50.752;4.268;2022-11-20T06:15:56;6.40;99.90
25482;DHT22;13395;50.752;4.268;2022-11-20T06:18:22;6.40;99.90
25482;DHT22;13395;50.752;4.268;2022-11-20T06:20:47;6.20;99.90
25482;DHT22;13395;50.752;4.268;2022-11-20T06:23:13;6.10;99.90
25482;DHT22;13395;50.752;4.268;2022-11-20T06:25:41;6.30;99.90
25482;DHT22;13395;50.752;4.268;2022-11-20T06:28:07;6.20;99.90
25482;DHT22;13395;50.752;4.268;2022-11-20T06:30:34;6.20;99.90
25482;DHT22;13395;50.752;4.268;2022-11-20T06:32:59;6.20;99.90
25482;DHT22;13395;50.752;4.268;2022-11-20T06:35:25;6.30;99.90
25482;DHT22;13395;50.752;4.268;2022-11-20T06:37:50;6.30;99.90
25482;DHT22;13395;50.752;4.268;2022-11-20T06:40:16;6.30;99.90
25482;DHT22;13395;50.752;4.268;2022-11-20T06:42:41;6.50;99.90
25482;DHT22;13395;50.752;4.268;2022-11-20T06:45:07;6.60;99.90
25482;DHT22;13395;50.752;4.268;2022-11-20T06:47:33;6.60;99.90
25482;DHT22;13395;50.752;4.268;2022-11-20T06:49:59;6.50;99.90
25482;DHT22;13395;50.752;4.268;2022-11-20T06:52:24;6.50;99.90
25482;DHT22;13395;50.752;4.268;2022-11-20T06:54:49;6.60;99.90
25482;DHT22;13395;50.752;4.268;2022-11-20T06:57:15;6.60;99.90
25482;DHT22;13395;50.752;4.268;2022-11-20T06:59:40;6.60;99.90
25482;DHT22;13395;50.752;4.268;2022-11-20T07:02:09;6.60;99.90
25482;DHT22;13395;50.752;4.268;2022-11-20T07:04:34;6.70;99.90
25482;DHT22;13395;50.752;4.268;2022-11-20T07:07:00;6.70;99.90
25482;DHT22;13395;50.752;4.268;2022-11-20T07:09:25;6.60;99.90
25482;DHT22;13395;50.752;4.268;2022-11-20T07:11:51;6.70;99.90
25482;DHT22;13395;50.752;4.268;2022-11-20T07:14:16;6.70;99.90
25482;DHT22;13395;50.752;4.268;2022-11-20T07:16:42;6.50;99.90
25482;DHT22;13395;50.752;4.268;2022-11-20T07:19:07;6.50;99.90
25482;DHT22;13395;50.752;4.268;2022-11-20T07:21:33;6.60;99.90
25482;DHT22;13395;50.752;4.268;2022-11-20T07:23:58;6.60;99.90
25482;DHT22;13395;50.752;4.268;2022-11-20T07:26:24;6.60;99.90
25482;DHT22;13395;50.752;4.268;2022-11-20T07:28:49;6.60;99.90
25482;DHT22;13395;50.752;4.268;2022-11-20T07:31:15;6.60;99.90
25482;DHT22;13395;50.752;4.268;2022-11-20T07:33:40;6.70;99.90
25482;DHT22;13395;50.752;4.268;2022-11-20T07:36:06;6.70;99.90
25482;DHT22;13395;50.752;4.268;2022-11-20T07:38:31;6.80;99.90
25482;DHT22;13395;50.752;4.268;2022-11-20T07:40:57;6.90;99.90
25482;DHT22;13395;50.752;4.268;2022-11-20T07:43:23;6.90;99.90
25482;DHT22;13395;50.752;4.268;2022-11-20T07:45:49;6.80;99.90
25482;DHT22;13395;50.752;4.268;2022-11-20T07:48:15;6.70;99.90
25482;DHT22;13395;50.752;4.268;2022-11-20T07:50:40;6.80;99.90
25482;DHT22;13395;50.752;4.268;2022-11-20T07:53:06;6.80;99.90
25482;DHT22;13395;50.752;4.268;2022-11-20T07:55:32;6.90;99.90
25482;DHT22;13395;50.752;4.268;2022-11-20T07:57:58;6.80;99.90
25482;DHT22;13395;50.752;4.268;2022-11-20T08:00:23;6.70;99.90
25482;DHT22;13395;50.752;4.268;2022-11-20T08:02:49;6.70;99.90
25482;DHT22;13395;50.752;4.268;2022-11-20T08:05:15;6.80;99.90
25482;DHT22;13395;50.752;4.268;2022-11-20T08:07:41;6.90;99.90
25482;DHT22;13395;50.752;4.268;2022-11-20T08:10:08;7.00;99.90
25482;DHT22;13395;50.752;4.268;2022-11-20T08:12:33;7.10;99.90
25482;DHT22;13395;50.752;4.268;2022-11-20T08:15:17;7.10;99.90
25482;DHT22;13395;50.752;4.268;2022-11-20T08:17:43;7.20;99.90
25482;DHT22;13395;50.752;4.268;2022-11-20T08:20:09;7.20;99.90
25482;DHT22;13395;50.752;4.268;2022-11-20T08:22:34;7.40;99.90
25482;DHT22;13395;50.752;4.268;2022-11-20T08:25:00;7.60;99.90
25482;DHT22;13395;50.752;4.268;2022-11-20T08:27:25;7.80;99.90
25482;DHT22;13395;50.752;4.268;2022-11-20T08:29:51;7.90;99.90
25482;DHT22;13395;50.752;4.268;2022-11-20T08:32:16;8.00;99.90
25482;DHT22;13395;50.752;4.268;2022-11-20T08:34:42;8.00;99.90
25482;DHT22;13395;50.752;4.268;2022-11-20T08:37:07;8.10;99.90
25482;DHT22;13395;50.752;4.268;2022-11-20T08:39:33;8.00;99.90
25482;DHT22;13395;50.752;4.268;2022-11-20T08:41:58;8.00;99.90
25482;DHT22;13395;50.752;4.268;2022-11-20T08:44:24;8.10;99.90
25482;DHT22;13395;50.752;4.268;2022-11-20T08:46:49;8.20;99.90
25482;DHT22;13395;50.752;4.268;2022-11-20T08:49:15;8.30;99.90
25482;DHT22;13395;50.752;4.268;2022-11-20T08:51:41;8.40;99.90
25482;DHT22;13395;50.752;4.268;2022-11-20T08:54:07;8.50;99.90
25482;DHT22;13395;50.752;4.268;2022-11-20T08:56:32;8.50;99.90
25482;DHT22;13395;50.752;4.268;2022-11-20T08:58:58;8.60;99.90
25482;DHT22;13395;50.752;4.268;2022-11-20T09:01:27;8.80;99.90
25482;DHT22;13395;50.752;4.268;2022-11-20T09:03:54;8.80;99.90
25482;DHT22;13395;50.752;4.268;2022-11-20T09:06:20;8.80;99.90
25482;DHT22;13395;50.752;4.268;2022-11-20T09:08:45;8.90;99.90
25482;DHT22;13395;50.752;4.268;2022-11-20T09:11:11;9.00;99.90
25482;DHT22;13395;50.752;4.268;2022-11-20T09:13:36;9.00;99.90
25482;DHT22;13395;50.752;4.268;2022-11-20T09:16:04;9.10;99.90
25482;DHT22;13395;50.752;4.268;2022-11-20T09:18:30;9.10;99.90
25482;DHT22;13395;50.752;4.268;2022-11-20T09:20:58;9.00;99.90
25482;DHT22;13395;50.752;4.268;2022-11-20T09:23:24;9.10;99.90
25482;DHT22;13395;50.752;4.268;2022-11-20T09:25:49;9.10;99.90
25482;DHT22;13395;50.752;4.268;2022-11-20T09:28:15;9.00;99.90
25482;DHT22;13395;50.752;4.268;2022-11-20T09:30:41;9.10;99.90
25482;DHT22;13395;50.752;4.268;2022-11-20T09:33:07;9.10;99.90
25482;DHT22;13395;50.752;4.268;2022-11-20T09:35:33;9.20;99.90
25482;DHT22;13395;50.752;4.268;2022-11-20T09:38:03;9.30;99.90
25482;DHT22;13395;50.752;4.268;2022-11-20T09:40:29;9.50;99.90
25482;DHT22;13395;50.752;4.268;2022-11-20T09:42:56;9.50;99.90
25482;DHT22;13395;50.752;4.268;2022-11-20T09:48:05;9.60;99.90
25482;DHT22;13395;50.752;4.268;2022-11-20T09:50:45;9.70;99.90
25482;DHT22;13395;50.752;4.268;2022-11-20T09:53:35;9.80;99.90
25482;DHT22;13395;50.752;4.268;2022-11-20T09:56:08;9.80;99.90
25482;DHT22;13395;50.752;4.268;2022-11-20T09:58:57;9.70;99.90
25482;DHT22;13395;50.752;4.268;2022-11-20T10:01:25;9.90;99.90
25482;DHT22;13395;50.752;4.268;2022-11-20T10:03:56;9.70;99.90
25482;DHT22;13395;50.752;4.268;2022-11-20T10:06:29;9.80;99.90
25482;DHT22;13395;50.752;4.268;2022-11-20T10:11:35;9.80;99.90
25482;DHT22;13395;50.752;4.268;2022-11-20T10:14:12;9.90;99.90
25482;DHT22;13395;50.752;4.268;2022-11-20T10:29:11;10.70;99.90
25482;DHT22;13395;50.752;4.268;2022-11-20T10:31:38;10.90;99.90
25482;DHT22;13395;50.752;4.268;2022-11-20T10:34:14;11.00;99.90
25482;DHT22;13395;50.752;4.268;2022-11-20T10:36:44;11.10;99.90
25482;DHT22;13395;50.752;4.268;2022-11-20T10:39:15;11.00;99.90
25482;DHT22;13395;50.752;4.268;2022-11-20T10:41:42;10.90;99.90
25482;DHT22;13395;50.752;4.268;2022-11-20T10:44:10;10.70;99.90
25482;DHT22;13395;50.752;4.268;2022-11-20T10:46:43;10.80;99.90
25482;DHT22;13395;50.752;4.268;2022-11-20T10:49:11;10.90;99.90
25482;DHT22;13395;50.752;4.268;2022-11-20T10:51:40;10.80;99.90
25482;DHT22;13395;50.752;4.268;2022-11-20T10:59:46;10.60;99.90
25482;DHT22;13395;50.752;4.268;2022-11-20T11:02:19;10.60;99.90
25482;DHT22;13395;50.752;4.268;2022-11-20T11:04:46;10.50;99.90
25482;DHT22;13395;50.752;4.268;2022-11-20T11:09:46;10.60;99.90
25482;DHT22;13395;50.752;4.268;2022-11-20T11:12:12;10.60;99.90
25482;DHT22;13395;50.752;4.268;2022-11-20T11:14:45;10.50;99.90
25482;DHT22;13395;50.752;4.268;2022-11-20T11:17:18;10.40;99.90
25482;DHT22;13395;50.752;4.268;2022-11-20T11:19:45;10.40;99.90
25482;DHT22;13395;50.752;4.268;2022-11-20T11:22:10;10.30;99.90
25482;DHT22;13395;50.752;4.268;2022-11-20T11:24:43;10.20;99.90
25482;DHT22;13395;50.752;4.268;2022-11-20T11:27:16;10.10;99.90
25482;DHT22;13395;50.752;4.268;2022-11-20T11:29:42;10.00;99.90
25482;DHT22;13395;50.752;4.268;2022-11-20T11:32:11;9.90;99.90
25482;DHT22;13395;50.752;4.268;2022-11-20T11:34:36;9.80;99.90
25482;DHT22;13395;50.752;4.268;2022-11-20T11:37:02;9.90;99.90
25482;DHT22;13395;50.752;4.268;2022-11-20T11:39:29;9.80;99.90
25482;DHT22;13395;50.752;4.268;2022-11-20T11:41:55;9.70;99.90
25482;DHT22;13395;50.752;4.268;2022-11-20T11:44:26;9.50;99.90
25482;DHT22;13395;50.752;4.268;2022-11-20T11:47:55;9.60;99.90
25482;DHT22;13395;50.752;4.268;2022-11-20T11:50:07;9.70;99.90
25482;DHT22;13395;50.752;4.268;2022-11-20T11:53:01;9.60;99.90
25482;DHT22;13395;50.752;4.268;2022-11-20T11:55:30;9.50;99.90
25482;DHT22;13395;50.752;4.268;2022-11-20T12:00:25;9.50;99.90
25482;DHT22;13395;50.752;4.268;2022-11-20T12:05:20;9.50;99.90
25482;DHT22;13395;50.752;4.268;2022-11-20T12:07:47;9.50;99.90
25482;DHT22;13395;50.752;4.268;2022-11-20T12:10:17;9.50;99.90
25482;DHT22;13395;50.752;4.268;2022-11-20T12:12:45;9.40;99.90
25482;DHT22;13395;50.752;4.268;2022-11-20T12:15:15;9.40;99.90
25482;DHT22;13395;50.752;4.268;2022-11-20T12:17:42;9.40;99.90
25482;DHT22;13395;50.752;4.268;2022-11-20T12:20:11;9.40;99.90
25482;DHT22;13395;50.752;4.268;2022-11-20T12:22:44;9.30;99.90
25482;DHT22;13395;50.752;4.268;2022-11-20T12:25:16;9.30;99.90
25482;DHT22;13395;50.752;4.268;2022-11-20T12:30:27;9.20;99.90
25482;DHT22;13395;50.752;4.268;2022-11-20T12:43:27;9.30;99.90
25482;DHT22;13395;50.752;4.268;2022-11-20T13:01:29;9.50;99.90
25482;DHT22;13395;50.752;4.268;2022-11-20T13:06:43;9.50;99.90
25482;DHT22;13395;50.752;4.268;2022-11-20T13:09:10;9.50;99.90
25482;DHT22;13395;50.752;4.268;2022-11-20T13:11:44;9.40;99.90
25482;DHT22;13395;50.752;4.268;2022-11-20T13:14:16;9.40;99.90
25482;DHT22;13395;50.752;4.268;2022-11-20T13:16:52;9.30;99.90
25482;DHT22;13395;50.752;4.268;2022-11-20T13:19:19;9.20;99.90
25482;DHT22;13395;50.752;4.268;2022-11-20T13:21:46;9.30;99.90
25482;DHT22;13395;50.752;4.268;2022-11-20T13:24:22;9.30;99.90
25482;DHT22;13395;50.752;4.268;2022-11-20T13:26:59;9.30;99.90
25482;DHT22;13395;50.752;4.268;2022-11-20T13:29:25;9.20;99.90
25482;DHT22;13395;50.752;4.268;2022-11-20T13:31:51;9.10;99.90
25482;DHT22;13395;50.752;4.268;2022-11-20T13:34:26;9.20;99.90
25482;DHT22;13395;50.752;4.268;2022-11-20T13:36:56;9.00;99.90
25482;DHT22;13395;50.752;4.268;2022-11-20T13:39:29;9.10;99.90
25482;DHT22;13395;50.752;4.268;2022-11-20T13:42:01;9.10;99.90
25482;DHT22;13395;50.752;4.268;2022-11-20T13:44:36;9.20;99.90
25482;DHT22;13395;50.752;4.268;2022-11-20T13:47:03;9.20;99.90
25482;DHT22;13395;50.752;4.268;2022-11-20T14:02:13;9.40;99.90
25482;DHT22;13395;50.752;4.268;2022-11-20T14:04:42;9.40;99.90
25482;DHT22;13395;50.752;4.268;2022-11-20T14:07:08;9.40;99.90
25482;DHT22;13395;50.752;4.268;2022-11-20T14:09:34;9.40;99.90
25482;DHT22;13395;50.752;4.268;2022-11-20T14:12:01;9.40;99.90
25482;DHT22;13395;50.752;4.268;2022-11-20T14:14:27;9.40;99.90
25482;DHT22;13395;50.752;4.268;2022-11-20T14:17:04;9.30;99.90
25482;DHT22;13395;50.752;4.268;2022-11-20T14:19:30;9.30;99.90
25482;DHT22;13395;50.752;4.268;2022-11-20T14:24:33;9.30;99.90
25482;DHT22;13395;50.752;4.268;2022-11-20T14:26:59;9.30;99.90
25482;DHT22;13395;50.752;4.268;2022-11-20T14:29:43;9.20;99.90
25482;DHT22;13395;50.752;4.268;2022-11-20T14:32:09;9.20;99.90
25482;DHT22;13395;50.752;4.268;2022-11-20T14:34:37;9.20;99.90
25482;DHT22;13395;50.752;4.268;2022-11-20T14:37:04;9.20;99.90
25482;DHT22;13395;50.752;4.268;2022-11-20T14:39:52;9.20;99.90
25482;DHT22;13395;50.752;4.268;2022-11-20T14:42:18;9.20;99.90
25482;DHT22;13395;50.752;4.268;2022-11-20T14:44:43;9.20;99.90
25482;DHT22;13395;50.752;4.268;2022-11-20T14:47:10;9.10;99.90
25482;DHT22;13395;50.752;4.268;2022-11-20T14:49:37;9.20;99.90
25482;DHT22;13395;50.752;4.268;2022-11-20T14:52:11;9.10;99.90
25482;DHT22;13395;50.752;4.268;2022-11-20T14:55:13;9.20;99.90
25482;DHT22;13395;50.752;4.268;2022-11-20T14:57:30;9.30;99.90
25482;DHT22;13395;50.752;4.268;2022-11-20T15:00:06;9.50;99.90
25482;DHT22;13395;50.752;4.268;2022-11-20T15:02:32;9.50;99.90
25482;DHT22;13395;50.752;4.268;2022-11-20T15:04:58;9.50;99.90
25482;DHT22;13395;50.752;4.268;2022-11-20T15:07:25;9.50;99.90
25482;DHT22;13395;50.752;4.268;2022-11-20T15:10:01;9.50;99.90
25482;DHT22;13395;50.752;4.268;2022-11-20T15:12:26;9.60;99.90
25482;DHT22;13395;50.752;4.268;2022-11-20T15:14:52;9.70;99.90
25482;DHT22;13395;50.752;4.268;2022-11-20T15:17:17;9.70;99.90
25482;DHT22;13395;50.752;4.268;2022-11-20T15:19:43;9.70;99.90
25482;DHT22;13395;50.752;4.268;2022-11-20T15:22:09;9.60;99.90
25482;DHT22;13395;50.752;4.268;2022-11-20T15:24:37;9.70;99.90
25482;DHT22;13395;50.752;4.268;2022-11-20T15:27:03;9.70;99.90
25482;DHT22;13395;50.752;4.268;2022-11-20T15:29:28;9.70;99.90
25482;DHT22;13395;50.752;4.268;2022-11-20T15:31:54;9.80;99.90
25482;DHT22;13395;50.752;4.268;2022-11-20T15:34:20;9.80;99.90
25482;DHT22;13395;50.752;4.268;2022-11-20T15:36:45;9.80;99.90
25482;DHT22;13395;50.752;4.268;2022-11-20T15:39:11;9.80;99.90
25482;DHT22;13395;50.752;4.268;2022-11-20T15:41:36;9.80;99.90
25482;DHT22;13395;50.752;4.268;2022-11-20T15:44:03;9.80;99.90
25482;DHT22;13395;50.752;4.268;2022-11-20T15:46:32;9.80;99.90
25482;DHT22;13395;50.752;4.268;2022-11-20T15:49:02;9.80;99.90
25482;DHT22;13395;50.752;4.268;2022-11-20T15:51:35;9.80;99.90
25482;DHT22;13395;50.752;4.268;2022-11-20T15:54:02;9.70;99.90
25482;DHT22;13395;50.752;4.268;2022-11-20T15:56:34;9.70;99.90
25482;DHT22;13395;50.752;4.268;2022-11-20T15:58:59;9.70;99.90
25482;DHT22;13395;50.752;4.268;2022-11-20T16:01:25;9.70;99.90
25482;DHT22;13395;50.752;4.268;2022-11-20T16:03:50;9.80;99.90
25482;DHT22;13395;50.752;4.268;2022-11-20T16:06:16;9.80;99.90
25482;DHT22;13395;50.752;4.268;2022-11-20T16:08:41;9.70;99.90
25482;DHT22;13395;50.752;4.268;2022-11-20T16:11:09;9.70;99.90
25482;DHT22;13395;50.752;4.268;2022-11-20T16:13:35;9.70;99.90
25482;DHT22;13395;50.752;4.268;2022-11-20T16:16:24;9.80;99.90
25482;DHT22;13395;50.752;4.268;2022-11-20T16:18:53;9.70;99.90
25482;DHT22;13395;50.752;4.268;2022-11-20T16:21:18;9.70;99.90
25482;DHT22;13395;50.752;4.268;2022-11-20T16:23:44;9.70;99.90
25482;DHT22;13395;50.752;4.268;2022-11-20T16:26:10;9.70;99.90
25482;DHT22;13395;50.752;4.268;2022-11-20T16:28:36;9.80;99.90
25482;DHT22;13395;50.752;4.268;2022-11-20T16:31:08;9.70;99.90
25482;DHT22;13395;50.752;4.268;2022-11-20T16:33:34;9.70;99.90
25482;DHT22;13395;50.752;4.268;2022-11-20T16:36:05;9.70;99.90
25482;DHT22;13395;50.752;4.268;2022-11-20T16:38:31;9.60;99.90
25482;DHT22;13395;50.752;4.268;2022-11-20T16:41:00;9.50;99.90
25482;DHT22;13395;50.752;4.268;2022-11-20T16:43:25;9.50;99.90
25482;DHT22;13395;50.752;4.268;2022-11-20T16:45:51;9.40;99.90
25482;DHT22;13395;50.752;4.268;2022-11-20T16:48:16;9.30;99.90
25482;DHT22;13395;50.752;4.268;2022-11-20T16:50:44;9.40;99.90
25482;DHT22;13395;50.752;4.268;2022-11-20T16:53:10;9.30;99.90
25482;DHT22;13395;50.752;4.268;2022-11-20T16:55:35;9.50;99.90
25482;DHT22;13395;50.752;4.268;2022-11-20T16:58:01;9.40;99.90
25482;DHT22;13395;50.752;4.268;2022-11-20T17:00:26;9.40;99.90
25482;DHT22;13395;50.752;4.268;2022-11-20T17:02:52;9.30;99.90
25482;DHT22;13395;50.752;4.268;2022-11-20T17:05:17;9.30;99.90
25482;DHT22;13395;50.752;4.268;2022-11-20T17:07:42;9.30;99.90
25482;DHT22;13395;50.752;4.268;2022-11-20T17:10:08;9.20;99.90
25482;DHT22;13395;50.752;4.268;2022-11-20T17:12:33;9.20;99.90
25482;DHT22;13395;50.752;4.268;2022-11-20T17:14:59;9.20;99.90